Terminal Aerodrome Forecast
Issued by NWS Memphis, TN

Home | Current Version | Previous Version | Text Only | Print | Product List | Glossary On
Versions: 1 2 3 4 5 6 7 8 9 10 11 12 13 14 15 16 17 18 19 20
000
FTUS44 KMEG 211734
TAFJBR
TAF
KJBR 211734Z 2118/2218 10007KT P6SM SCT050 BKN250
     FM220700 13008KT P6SM FEW015 BKN150
     FM221000 17008KT P6SM OVC010=

USA.gov is the U.S. government's official web portal to all federal, state and local government web resources and services.